Flight Track Log - Related Links

Times and Time Zones

All times are in EDT time to prevent confusion due to time zone crossing. See the N28295 flight status page for this flight to view local times or setup timezone preferences in your user account.

Time Position Orientation Groundspeed Altitude Reporting Facility
EDT Latitude Longitude Course Direction KTS MPH feet Rate Location/Type
Wed 02:32:58 PM 39.9883 -78.9275 119° Southeast 112 129 4,900  Level Cleveland Center
Wed 02:33:58 PM 39.9689 -78.8819 119° Southeast 142 163 4,900  Level Cleveland Center
Wed 02:34:59 PM 39.9558 -78.8336 109° East 147 169 4,900  Level Cleveland Center
Wed 02:36:00 PM 39.9406 -78.7906 115° Southeast 140 161 4,900 -50 Level Cleveland Center
Wed 02:37:00 PM 39.9231 -78.7478 118° Southeast 136 157 4,800  Descending Cleveland Center
Wed 02:37:55 PM 39.9058 -78.7103 121° Southeast 136 157 4,900 52 Climbing Cleveland Center
Wed 02:38:56 PM 39.8883 -78.6594 114° Southeast 138 159 4,900  Level Cleveland Center
Wed 02:40:02 PM 39.8686 -78.6111 118° Southeast 141 162 4,900  Level Cleveland Center
Wed 02:40:57 PM 39.8514 -78.5711 119° Southeast 142 163 4,900  Level Cleveland Center
Wed 02:41:57 PM 39.8339 -78.5283 118° Southeast 143 165 4,900 -50 Level Cleveland Center
Wed 02:42:58 PM 39.8122 -78.4806 121° Southeast 141 162 4,800 -38 Descending Cleveland Center
Wed 02:44:37 PM 39.7811 -78.3994 117° Southeast 172 198 4,800 75 Level Washington Center
Wed 02:45:38 PM 39.7653 -78.3583 117° Southeast 148 170 5,000 99 Climbing Washington Center
Wed 02:46:38 PM 39.7433 -78.3117 121° Southeast 141 162 5,000  Level Washington Center
Wed 02:47:39 PM 39.7236 -78.2706 122° Southeast 141 162 5,000  Level Washington Center
Wed 02:48:37 PM 39.7058 -78.2239 116° Southeast 141 162 5,000  Level Washington Center
Wed 02:49:37 PM 39.6881 -78.1803 118° Southeast 141 162 5,000  Level Washington Center
Wed 02:50:38 PM 39.6681 -78.1364 121° Southeast 141 162 5,000  Level Washington Center
Wed 02:51:38 PM 39.6522 -78.0928 115° Southeast 141 162 5,000  Level Washington Center
Wed 02:52:39 PM 39.6325 -78.0489 120° Southeast 141 162 5,000  Level Washington Center
Wed 02:53:39 PM 39.6167 -78.0053 115° Southeast 136 157 5,000  Level Washington Center
Wed 02:54:40 PM 39.5967 -77.9614 121° Southeast 136 157 5,000  Level Washington Center
Wed 02:55:37 PM 39.5767 -77.9150 119° Southeast 141 162 5,000  Level Washington Center
Wed 02:56:38 PM 39.5567 -77.8714 121° Southeast 141 162 5,000  Level Washington Center
Wed 02:57:37 PM 39.5367 -77.8250 119° Southeast 141 162 5,000  Level Washington Center
Wed 02:58:37 PM 39.5189 -77.7786 116° Southeast 141 162 5,000  Level Washington Center
Wed 03:00:17 PM 39.4833 -77.7000 120° Southeast 146 168 5,000  Level Potomac TRACON
Wed 03:01:17 PM 39.4667 -77.6500 113° Southeast 142 163 5,000  Level Potomac TRACON
Wed 03:02:11 PM 39.4667 -77.6167 90° East 141 162 5,000  Level Potomac TRACON
Wed 03:03:17 PM 39.4500 -77.5667 113° Southeast 142 163 5,000  Level Potomac TRACON
Wed 03:04:18 PM 39.4500 -77.5167 90° East 142 163 5,000 -149 Level Potomac TRACON
Wed 03:05:18 PM 39.4333 -77.4667 113° Southeast 133 153 4,700 -550 Descending Potomac TRACON
Wed 03:06:18 PM 39.4167 -77.4167 113° Southeast 148 170 3,900 -421 Descending Potomac TRACON
Wed 03:07:12 PM 39.3833 -77.3833 142° Southeast 136 157 3,900  Level Potomac TRACON
Wed 03:08:12 PM 39.3667 -77.3333 113° Southeast 140 161 3,900  Level Potomac TRACON
Wed 03:09:12 PM 39.3500 -77.3000 123° Southeast 140 161 3,900 -150 Level Potomac TRACON
Wed 03:10:12 PM 39.3333 -77.2500 113° Southeast 142 163 3,600 -730 Descending Potomac TRACON
Wed 03:11:07 PM 39.3000 -77.2167 142° Southeast 152 175 2,500 -545 Descending Potomac TRACON
Wed 03:12:13 PM 39.2833 -77.1667 113° Southeast 146 168 2,500 -50 Level Potomac TRACON
Wed 03:13:07 PM 39.2667 -77.1333 123° Southeast 142 163 2,400 -105 Descending Potomac TRACON
Wed 03:14:07 PM 39.2500 -77.0833 113° Southeast 140 161 2,300 -250 Descending Potomac TRACON
Wed 03:15:07 PM 39.2167 -77.0333 131° Southeast 145 167 1,900 -211 Descending Potomac TRACON
Wed 03:16:01 PM 39.2000 -77.0000 123° Southeast 144 166 1,900  Level Potomac TRACON
Wed 03:17:07 PM 39.1833 -76.9500 113° Southeast 143 165 1,900  Level Potomac TRACON
Wed 03:18:07 PM 39.1667 -76.9167 123° Southeast 142 163 1,900 -99 Level Potomac TRACON
Wed 03:19:08 PM 39.1333 -76.8667 131° Southeast 149 171 1,700 -347 Descending Potomac TRACON
Wed 03:20:08 PM 39.1000 -76.8333 142° Southeast 137 158 1,200 -400 Descending Potomac TRACON
Wed 03:21:08 PM 39.0833 -76.8000 123° Southeast 98 113 900 -300 Descending Potomac TRACON
Wed 03:23:00 PM 39.0854 -76.7594 117° Southeast  Level Estimated
Wed 03:30:00 PM 39.0854 -76.7594 117° Southeast  Level Estimated
Wed 03:31:00 PM 39.0854 -76.7594 117° Southeast  Level Estimated
Wed 03:32:00 PM 39.0854 -76.7594 117° Southeast  Level Estimated
Wed 03:33:00 PM 39.0854 -76.7594 117° Southeast  Level Estimated

Login

Don't have an account? Register now (free) for customized features, flight alerts, and more!